createdAt,value
2019-01-18T05:22:58.569Z,1013.35
2019-01-18T05:23:58.579Z,1013.30
2019-01-18T05:24:58.585Z,1013.31
2019-01-18T05:25:58.521Z,1013.31
2019-01-18T05:26:58.598Z,1013.31
2019-01-18T05:27:58.537Z,1013.35
2019-01-18T05:28:58.500Z,1013.32
2019-01-18T05:29:58.507Z,1013.32
2019-01-18T05:30:58.468Z,1013.31
2019-01-18T05:31:58.457Z,1013.33
2019-01-18T05:32:58.469Z,1013.35
2019-01-18T05:33:58.437Z,1013.35
2019-01-18T05:34:58.442Z,1013.37
2019-01-18T05:35:58.426Z,1013.39
2019-01-18T05:36:58.411Z,1013.38
2019-01-18T05:38:06.529Z,1013.44
2019-01-18T05:38:58.402Z,1013.47
2019-01-18T05:39:58.377Z,1013.46
2019-01-18T05:40:58.380Z,1013.49
2019-01-18T05:41:58.359Z,1013.51
2019-01-18T05:42:58.361Z,1013.53
2019-01-18T05:43:58.367Z,1013.55
2019-01-18T05:44:58.331Z,1013.60
2019-01-18T05:45:58.314Z,1013.60
2019-01-18T05:46:58.306Z,1013.60
2019-01-18T05:47:58.309Z,1013.60
2019-01-18T05:48:58.304Z,1013.62
2019-01-18T05:49:58.277Z,1013.68
2019-01-18T05:50:58.273Z,1013.66
2019-01-18T05:51:58.245Z,1013.72
2019-01-18T05:52:58.236Z,1013.76
2019-01-18T05:53:58.239Z,1013.71
2019-01-18T05:54:58.218Z,1013.79
2019-01-18T05:55:58.276Z,1013.81
2019-01-18T05:56:58.198Z,1013.82
2019-01-18T05:57:58.204Z,1013.86
2019-01-18T05:58:58.226Z,1013.82
2019-01-18T05:59:58.163Z,1013.92
2019-01-18T06:00:58.150Z,1013.85
2019-01-18T06:01:58.168Z,1013.93
2019-01-18T06:02:58.134Z,1013.88
2019-01-18T06:03:58.433Z,1013.91
2019-01-18T06:04:58.143Z,1013.89
2019-01-18T06:05:58.100Z,1013.93
2019-01-18T06:06:58.094Z,1013.87
2019-01-18T06:07:58.078Z,1013.85
2019-01-18T06:08:58.099Z,1013.85
2019-01-18T06:09:58.096Z,1013.89
2019-01-18T06:10:58.045Z,1013.85
2019-01-18T06:11:58.034Z,1013.89
2019-01-18T06:12:58.024Z,1013.92
2019-01-18T06:13:58.016Z,1013.90
2019-01-18T06:14:58.037Z,1013.87
2019-01-18T06:15:58.006Z,1013.85
2019-01-18T06:16:57.996Z,1013.91
2019-01-18T06:17:57.976Z,1013.88
2019-01-18T06:18:57.959Z,1013.92
2019-01-18T06:19:57.968Z,1013.91
2019-01-18T06:20:57.938Z,1013.91
2019-01-18T06:21:57.936Z,1013.88
2019-01-18T06:22:57.924Z,1013.88
2019-01-18T06:23:57.926Z,1013.89
2019-01-18T06:24:57.921Z,1013.91
2019-01-18T06:25:57.888Z,1013.92
2019-01-18T06:26:57.880Z,1013.97
2019-01-18T06:27:57.877Z,1013.96
2019-01-18T06:28:57.854Z,1013.96
2019-01-18T06:29:57.872Z,1013.98
2019-01-18T06:31:01.736Z,1014.01
2019-01-18T06:31:57.839Z,1014.06
2019-01-18T06:32:57.814Z,1014.03
2019-01-18T06:33:57.822Z,1014.04
2019-01-18T06:34:57.795Z,1014.05
2019-01-18T06:35:57.810Z,1014.03
2019-01-18T06:36:57.772Z,1014.06
2019-01-18T06:37:57.778Z,1014.06
2019-01-18T06:38:57.752Z,1014.01
2019-01-18T06:39:57.751Z,1014.03
2019-01-18T06:40:57.742Z,1014.04
2019-01-18T06:41:58.625Z,1014.04
2019-01-18T06:42:57.706Z,1014.06
2019-01-18T06:43:57.700Z,1014.05
2019-01-18T06:44:57.687Z,1014.01
2019-01-18T06:45:57.693Z,1014.09
2019-01-18T06:46:57.688Z,1014.09
2019-01-18T06:47:57.678Z,1014.09
2019-01-18T06:48:57.649Z,1014.11
2019-01-18T06:49:57.632Z,1014.14
2019-01-18T06:50:57.651Z,1014.17
2019-01-18T06:51:57.625Z,1014.23
2019-01-18T06:52:57.604Z,1014.23
2019-01-18T06:53:57.593Z,1014.21
2019-01-18T06:54:57.586Z,1014.29
2019-01-18T06:55:57.598Z,1014.28
2019-01-18T06:56:57.559Z,1014.28
2019-01-18T06:57:57.599Z,1014.29
2019-01-18T06:58:57.538Z,1014.30
2019-01-18T06:59:57.562Z,1014.33
2019-01-18T07:00:57.548Z,1014.36
2019-01-18T07:01:57.507Z,1014.36
2019-01-18T07:02:57.500Z,1014.38
2019-01-18T07:03:58.922Z,1014.31
2019-01-18T07:04:57.476Z,1014.37
2019-01-18T07:05:57.481Z,1014.39
2019-01-18T07:06:57.464Z,1014.41
2019-01-18T07:07:57.445Z,1014.39
2019-01-18T07:08:57.446Z,1014.42
2019-01-18T07:09:57.427Z,1014.40
2019-01-18T07:10:57.415Z,1014.38
2019-01-18T07:11:57.417Z,1014.41
2019-01-18T07:12:57.392Z,1014.38
2019-01-18T07:13:57.381Z,1014.37
2019-01-18T07:14:57.374Z,1014.42
2019-01-18T07:15:57.372Z,1014.48
2019-01-18T07:16:57.441Z,1014.45
2019-01-18T07:17:57.348Z,1014.51
2019-01-18T07:18:57.326Z,1014.48
2019-01-18T07:19:57.319Z,1014.46
2019-01-18T07:20:57.309Z,1014.54
2019-01-18T07:21:57.734Z,1014.51
2019-01-18T07:22:57.289Z,1014.52
2019-01-18T07:23:57.275Z,1014.52
2019-01-18T07:24:57.274Z,1014.53
2019-01-18T07:25:57.254Z,1014.52
2019-01-18T07:26:57.261Z,1014.54
2019-01-18T07:27:57.249Z,1014.57
2019-01-18T07:28:57.223Z,1014.56
2019-01-18T07:29:57.231Z,1014.55
2019-01-18T07:30:57.208Z,1014.56
2019-01-18T07:31:57.205Z,1014.48
2019-01-18T07:32:57.180Z,1014.49
2019-01-18T07:33:57.180Z,1014.51
2019-01-18T07:34:57.159Z,1014.53
2019-01-18T07:35:57.148Z,1014.51
2019-01-18T07:36:57.201Z,1014.52
2019-01-18T07:37:57.136Z,1014.55
2019-01-18T07:39:00.489Z,1014.55
2019-01-18T07:39:57.107Z,1014.57
2019-01-18T07:40:57.111Z,1014.53
2019-01-18T07:41:57.085Z,1014.61
2019-01-18T07:42:57.097Z,1014.59
2019-01-18T07:43:57.064Z,1014.59
2019-01-18T07:44:57.054Z,1014.64
2019-01-18T07:45:57.055Z,1014.65
2019-01-18T07:46:57.034Z,1014.57
2019-01-18T07:47:57.044Z,1014.61
2019-01-18T07:48:57.017Z,1014.68
2019-01-18T07:49:57.018Z,1014.70
2019-01-18T07:50:56.990Z,1014.66
2019-01-18T07:51:57.306Z,1014.65
2019-01-18T07:52:57.030Z,1014.72
2019-01-18T07:53:56.959Z,1014.75
2019-01-18T07:54:56.954Z,1014.75
2019-01-18T07:55:57.691Z,1014.79
2019-01-18T07:56:56.929Z,1014.87
2019-01-18T07:57:56.938Z,1014.88
2019-01-18T07:58:56.927Z,1014.89
2019-01-18T07:59:56.897Z,1014.95
2019-01-18T08:00:57.598Z,1014.93
2019-01-18T08:01:56.875Z,1014.97
2019-01-18T08:02:56.889Z,1014.98
2019-01-18T08:03:56.861Z,1015.02
2019-01-18T08:04:56.847Z,1015.02
2019-01-18T08:05:56.834Z,1015.02
2019-01-18T08:06:56.826Z,1015.08
2019-01-18T08:07:56.831Z,1015.04
2019-01-18T08:08:56.808Z,1015.06
2019-01-18T08:09:56.799Z,1015.09
2019-01-18T08:10:56.795Z,1015.04
2019-01-18T08:11:56.769Z,1015.11
2019-01-18T08:12:56.781Z,1015.08
2019-01-18T08:13:56.749Z,1015.10
2019-01-18T08:14:56.736Z,1015.15
2019-01-18T08:15:56.730Z,1015.15
2019-01-18T08:16:56.717Z,1015.14
2019-01-18T08:17:56.706Z,1015.17
2019-01-18T08:18:56.712Z,1015.23
2019-01-18T08:19:56.698Z,1015.18
2019-01-18T08:20:56.672Z,1015.18
2019-01-18T08:21:56.667Z,1015.18
2019-01-18T08:22:56.655Z,1015.24
2019-01-18T08:23:56.659Z,1015.25
2019-01-18T08:24:56.635Z,1015.30
2019-01-18T08:25:56.639Z,1015.28
2019-01-18T08:26:56.623Z,1015.30
2019-01-18T08:27:56.616Z,1015.31
2019-01-18T08:28:56.649Z,1015.36
2019-01-18T08:29:56.585Z,1015.40
2019-01-18T08:30:56.585Z,1015.36
2019-01-18T08:31:56.568Z,1015.34
2019-01-18T08:32:56.562Z,1015.35
2019-01-18T08:33:56.566Z,1015.34
2019-01-18T08:34:56.530Z,1015.35
2019-01-18T08:35:56.516Z,1015.35
2019-01-18T08:36:56.512Z,1015.40
2019-01-18T08:37:56.521Z,1015.39
2019-01-18T08:38:56.510Z,1015.39
2019-01-18T08:39:56.477Z,1015.39
2019-01-18T08:40:56.473Z,1015.40
2019-01-18T08:41:56.455Z,1015.44
2019-01-18T08:42:56.450Z,1015.48
2019-01-18T08:43:56.453Z,1015.45
2019-01-18T08:44:56.425Z,1015.50
2019-01-18T08:45:56.410Z,1015.48
2019-01-18T08:46:56.404Z,1015.49
2019-01-18T08:47:56.391Z,1015.53
2019-01-18T08:48:56.519Z,1015.56
2019-01-18T08:49:56.388Z,1015.57
2019-01-18T08:50:56.359Z,1015.57
2019-01-18T08:51:56.349Z,1015.60
2019-01-18T08:52:56.354Z,1015.60
2019-01-18T08:53:56.540Z,1015.62
2019-01-18T08:54:56.343Z,1015.60
2019-01-18T08:55:56.329Z,1015.64
2019-01-18T08:56:56.296Z,1015.62
2019-01-18T08:57:56.285Z,1015.64
2019-01-18T08:58:56.274Z,1015.61
2019-01-18T08:59:57.152Z,1015.62
2019-01-18T09:00:56.259Z,1015.68
2019-01-18T09:01:56.256Z,1015.66
2019-01-18T09:02:56.232Z,1015.65
2019-01-18T09:03:56.232Z,1015.68
2019-01-18T09:04:56.229Z,1015.65
2019-01-18T09:05:56.200Z,1015.71
2019-01-18T09:06:56.193Z,1015.70
2019-01-18T09:07:56.197Z,1015.73
2019-01-18T09:08:56.178Z,1015.76
2019-01-18T09:09:56.184Z,1015.73
2019-01-18T09:10:56.149Z,1015.77
2019-01-18T09:11:56.146Z,1015.75
2019-01-18T09:12:56.139Z,1015.82
2019-01-18T09:13:59.747Z,1015.82
2019-01-18T09:14:56.129Z,1015.80
2019-01-18T09:15:56.096Z,1015.81
2019-01-18T09:16:56.098Z,1015.78
2019-01-18T09:17:56.084Z,1015.79
2019-01-18T09:18:56.073Z,1015.86
2019-01-18T09:19:56.083Z,1015.80
2019-01-18T09:20:56.053Z,1015.79
2019-01-18T09:21:56.034Z,1015.80
2019-01-18T09:22:56.064Z,1015.87
2019-01-18T09:23:56.236Z,1015.87
2019-01-18T09:24:56.006Z,1015.86
2019-01-18T09:25:56.015Z,1015.84
2019-01-18T09:26:55.993Z,1015.83
2019-01-18T09:27:55.976Z,1015.86
2019-01-18T09:28:55.998Z,1015.84
2019-01-18T09:29:55.955Z,1015.86
2019-01-18T09:30:55.970Z,1015.85
2019-01-18T09:31:55.938Z,1015.92
2019-01-18T09:32:55.922Z,1015.88
2019-01-18T09:33:55.913Z,1015.89
2019-01-18T09:34:55.903Z,1015.93
2019-01-18T09:35:55.923Z,1015.94
2019-01-18T09:36:55.974Z,1015.95
2019-01-18T09:37:55.873Z,1015.99
2019-01-18T09:38:55.862Z,1015.98
2019-01-18T09:39:55.898Z,1016.03
2019-01-18T09:40:55.860Z,1016.02
2019-01-18T09:41:55.835Z,1016.01
2019-01-18T09:42:55.825Z,1016.08
2019-01-18T09:43:55.824Z,1016.04
2019-01-18T09:44:55.819Z,1016.01
2019-01-18T09:45:55.806Z,1016.04
2019-01-18T09:46:55.793Z,1016.02
2019-01-18T09:47:55.780Z,1016.01
2019-01-18T09:48:55.766Z,1016.06
2019-01-18T09:49:55.751Z,1016.05
2019-01-18T09:50:55.759Z,1016.07
2019-01-18T09:51:55.736Z,1016.07
2019-01-18T09:52:55.739Z,1016.16
2019-01-18T09:53:55.721Z,1016.13
2019-01-18T09:54:55.700Z,1016.14
2019-01-18T09:55:55.721Z,1016.19
2019-01-18T09:56:55.682Z,1016.17
2019-01-18T09:57:55.668Z,1016.18
2019-01-18T09:58:55.670Z,1016.18
2019-01-18T09:59:55.654Z,1016.16
2019-01-18T10:00:55.639Z,1016.20
2019-01-18T10:01:55.645Z,1016.20
2019-01-18T10:02:55.621Z,1016.16
2019-01-18T10:03:55.615Z,1016.16
2019-01-18T10:04:55.601Z,1016.14
2019-01-18T10:05:55.597Z,1016.12
2019-01-18T10:06:55.620Z,1016.19
2019-01-18T10:07:55.565Z,1016.16
2019-01-18T10:08:55.587Z,1016.13
2019-01-18T10:09:55.543Z,1016.19
2019-01-18T10:10:55.541Z,1016.17
2019-01-18T10:11:55.541Z,1016.23
2019-01-18T10:12:55.512Z,1016.20
2019-01-18T10:13:55.498Z,1016.22
2019-01-18T10:14:55.526Z,1016.21
2019-01-18T10:15:55.480Z,1016.26
2019-01-18T10:16:55.717Z,1016.28
2019-01-18T10:18:00.548Z,1016.22
2019-01-18T10:18:56.444Z,1016.24
2019-01-18T10:19:55.436Z,1016.18
2019-01-18T10:20:55.433Z,1016.26
2019-01-18T10:21:55.442Z,1016.19
2019-01-18T10:22:55.408Z,1016.23
2019-01-18T10:23:55.398Z,1016.22
2019-01-18T10:24:55.382Z,1016.18
2019-01-18T10:25:55.373Z,1016.22
2019-01-18T10:26:55.372Z,1016.26
2019-01-18T10:27:55.372Z,1016.25
2019-01-18T10:28:55.337Z,1016.27
2019-01-18T10:29:55.330Z,1016.26
2019-01-18T10:30:55.317Z,1016.23
2019-01-18T10:31:56.248Z,1016.25
2019-01-18T10:32:55.316Z,1016.26
2019-01-18T10:33:55.287Z,1016.29
2019-01-18T10:34:55.279Z,1016.28
2019-01-18T10:35:55.264Z,1016.25
2019-01-18T10:36:55.267Z,1016.26
2019-01-18T10:37:55.260Z,1016.25
2019-01-18T10:38:55.240Z,1016.21
2019-01-18T10:39:55.223Z,1016.22
2019-01-18T10:40:55.240Z,1016.25
2019-01-18T10:41:55.203Z,1016.20
2019-01-18T10:42:55.648Z,1016.18
2019-01-18T10:43:55.193Z,1016.18
2019-01-18T10:44:56.489Z,1016.20
2019-01-18T10:45:55.166Z,1016.20
2019-01-18T10:46:55.145Z,1016.21
2019-01-18T10:47:55.162Z,1016.20
2019-01-18T10:48:55.122Z,1016.25
2019-01-18T10:49:55.132Z,1016.23
2019-01-18T10:50:55.108Z,1016.22
2019-01-18T10:51:55.097Z,1016.21
2019-01-18T10:52:55.100Z,1016.15
2019-01-18T10:53:55.073Z,1016.15
2019-01-18T10:54:55.070Z,1016.18
2019-01-18T10:55:55.052Z,1016.15
2019-01-18T10:56:55.051Z,1016.17
2019-01-18T10:57:55.061Z,1016.19
2019-01-18T10:58:55.015Z,1016.19
2019-01-18T10:59:55.011Z,1016.26
2019-01-18T11:00:54.998Z,1016.23
2019-01-18T11:02:00.660Z,1016.21
2019-01-18T11:02:55.993Z,1016.20
2019-01-18T11:03:54.960Z,1016.25
2019-01-18T11:04:54.951Z,1016.24
2019-01-18T11:05:54.935Z,1016.26
2019-01-18T11:06:54.962Z,1016.22
2019-01-18T11:07:54.934Z,1016.19
2019-01-18T11:08:54.904Z,1016.18
2019-01-18T11:09:54.894Z,1016.20
2019-01-18T11:10:54.879Z,1016.20
2019-01-18T11:11:54.869Z,1016.20
2019-01-18T11:12:54.900Z,1016.20
2019-01-18T11:13:54.857Z,1016.15
2019-01-18T11:14:54.840Z,1016.09
2019-01-18T11:15:54.826Z,1016.13
2019-01-18T11:16:54.811Z,1016.08
2019-01-18T11:17:54.813Z,1016.19
2019-01-18T11:18:54.829Z,1016.12
2019-01-18T11:19:54.787Z,1016.15
2019-01-18T11:20:54.775Z,1016.14
2019-01-18T11:21:54.767Z,1016.18
2019-01-18T11:22:54.755Z,1016.20
2019-01-18T11:23:54.751Z,1016.16
2019-01-18T11:24:54.734Z,1016.15
2019-01-18T11:25:54.739Z,1016.20
2019-01-18T11:26:54.704Z,1016.19
2019-01-18T11:27:54.696Z,1016.08
2019-01-18T11:28:54.696Z,1016.09
2019-01-18T11:29:54.679Z,1016.07
2019-01-18T11:30:54.659Z,1016.00
2019-01-18T11:31:54.647Z,1016.02
2019-01-18T11:32:54.636Z,1015.99
2019-01-18T11:33:54.661Z,1015.97
2019-01-18T11:34:54.614Z,1016.04
2019-01-18T11:35:54.652Z,1016.03
2019-01-18T11:36:56.701Z,1016.04
2019-01-18T11:37:54.580Z,1016.02
2019-01-18T11:38:54.589Z,1016.01
2019-01-18T11:39:54.557Z,1016.02
2019-01-18T11:40:54.550Z,1016.03
2019-01-18T11:41:54.536Z,1016.02
2019-01-18T11:42:54.540Z,1015.99
2019-01-18T11:43:54.539Z,1015.99
2019-01-18T11:44:54.514Z,1015.92
2019-01-18T11:45:54.489Z,1015.92
2019-01-18T11:46:54.491Z,1015.96
2019-01-18T11:47:54.472Z,1015.99
2019-01-18T11:48:54.476Z,1015.97
2019-01-18T11:49:54.446Z,1015.97
2019-01-18T11:50:54.447Z,1015.96
2019-01-18T11:51:54.425Z,1015.94
2019-01-18T11:52:54.415Z,1015.95
2019-01-18T11:53:54.418Z,1015.94
2019-01-18T11:54:54.397Z,1015.91
2019-01-18T11:55:54.380Z,1015.96
2019-01-18T11:56:54.380Z,1015.94
2019-01-18T11:57:54.379Z,1015.94
2019-01-18T11:58:54.366Z,1015.93
2019-01-18T11:59:54.340Z,1015.87
2019-01-18T12:00:54.335Z,1015.85
2019-01-18T12:01:54.355Z,1015.91
2019-01-18T12:02:54.309Z,1015.94
2019-01-18T12:03:54.322Z,1015.89
2019-01-18T12:04:54.285Z,1015.91
2019-01-18T12:05:54.289Z,1015.88
2019-01-18T12:06:54.278Z,1015.90
2019-01-18T12:07:54.262Z,1015.93
2019-01-18T12:08:54.241Z,1015.88
2019-01-18T12:09:54.250Z,1015.86
2019-01-18T12:10:54.221Z,1015.88
2019-01-18T12:11:54.215Z,1015.85
2019-01-18T12:12:54.199Z,1015.88
2019-01-18T12:13:54.205Z,1015.82
2019-01-18T12:14:54.197Z,1015.79
2019-01-18T12:15:54.171Z,1015.83
2019-01-18T12:16:54.157Z,1015.81
2019-01-18T12:17:54.159Z,1015.84
2019-01-18T12:18:54.153Z,1015.80
2019-01-18T12:19:54.165Z,1015.82
2019-01-18T12:20:54.128Z,1015.82
2019-01-18T12:21:54.100Z,1015.78
2019-01-18T12:22:54.092Z,1015.77
2019-01-18T12:23:54.094Z,1015.79
2019-01-18T12:24:54.087Z,1015.79
2019-01-18T12:25:54.066Z,1015.84
2019-01-18T12:26:54.047Z,1015.83
2019-01-18T12:27:54.212Z,1015.82
2019-01-18T12:28:54.030Z,1015.78
2019-01-18T12:29:54.042Z,1015.78
2019-01-18T12:30:54.034Z,1015.78
2019-01-18T12:31:53.999Z,1015.82
2019-01-18T12:32:53.982Z,1015.78
2019-01-18T12:33:53.973Z,1015.76
2019-01-18T12:34:53.986Z,1015.79
2019-01-18T12:35:53.953Z,1015.76
2019-01-18T12:36:58.993Z,1015.76
2019-01-18T12:37:54.930Z,1015.68
2019-01-18T12:38:53.955Z,1015.73
2019-01-18T12:39:53.929Z,1015.74
2019-01-18T12:40:53.899Z,1015.72
2019-01-18T12:41:53.892Z,1015.74
2019-01-18T12:42:53.910Z,1015.72
2019-01-18T12:43:53.873Z,1015.67
2019-01-18T12:44:53.873Z,1015.66
2019-01-18T12:45:53.849Z,1015.70
2019-01-18T12:46:53.836Z,1015.70
2019-01-18T12:47:53.852Z,1015.72
2019-01-18T12:48:53.836Z,1015.71
2019-01-18T12:49:53.845Z,1015.71
2019-01-18T12:50:53.795Z,1015.70
2019-01-18T12:51:53.788Z,1015.70
2019-01-18T12:52:53.777Z,1015.69
2019-01-18T12:53:53.775Z,1015.71
2019-01-18T12:54:53.787Z,1015.71
2019-01-18T12:55:53.746Z,1015.78
2019-01-18T12:56:53.737Z,1015.75
2019-01-18T12:57:53.723Z,1015.76
2019-01-18T12:58:56.601Z,1015.73
2019-01-18T12:59:53.746Z,1015.70
2019-01-18T13:00:53.717Z,1015.76
2019-01-18T13:01:53.682Z,1015.75
2019-01-18T13:02:53.676Z,1015.77
2019-01-18T13:03:53.662Z,1015.75
2019-01-18T13:04:53.658Z,1015.77
2019-01-18T13:05:53.744Z,1015.74
2019-01-18T13:06:53.645Z,1015.71
2019-01-18T13:07:53.623Z,1015.66
2019-01-18T13:08:53.658Z,1015.69
2019-01-18T13:09:53.601Z,1015.67
2019-01-18T13:10:53.612Z,1015.66
2019-01-18T13:11:53.583Z,1015.66
2019-01-18T13:12:53.580Z,1015.64
2019-01-18T13:13:53.564Z,1015.60
2019-01-18T13:14:57.246Z,1015.59
2019-01-18T13:15:53.556Z,1015.60
2019-01-18T13:16:53.535Z,1015.60
2019-01-18T13:17:53.530Z,1015.56
2019-01-18T13:18:53.520Z,1015.57
2019-01-18T13:19:53.500Z,1015.56
2019-01-18T13:20:53.530Z,1015.53
2019-01-18T13:21:53.480Z,1015.55
2019-01-18T13:22:53.472Z,1015.50
2019-01-18T13:23:53.479Z,1015.49
2019-01-18T13:24:53.465Z,1015.53
2019-01-18T13:25:53.452Z,1015.51
2019-01-18T13:26:53.430Z,1015.58
2019-01-18T13:27:53.422Z,1015.51
2019-01-18T13:28:53.441Z,1015.51
2019-01-18T13:29:53.421Z,1015.56
2019-01-18T13:30:53.426Z,1015.52
2019-01-18T13:31:53.373Z,1015.49
2019-01-18T13:32:53.369Z,1015.47
2019-01-18T13:33:53.351Z,1015.49
2019-01-18T13:34:53.350Z,1015.57
2019-01-18T13:35:53.354Z,1015.58
2019-01-18T13:36:53.355Z,1015.55
2019-01-18T13:37:53.310Z,1015.53
2019-01-18T13:38:53.301Z,1015.58
2019-01-18T13:39:53.290Z,1015.60
2019-01-18T13:40:53.311Z,1015.56
2019-01-18T13:41:53.284Z,1015.57
2019-01-18T13:42:53.270Z,1015.58
2019-01-18T13:43:53.276Z,1015.61
2019-01-18T13:44:53.247Z,1015.67
2019-01-18T13:45:53.227Z,1015.71
2019-01-18T13:46:53.237Z,1015.70
2019-01-18T13:47:53.225Z,1015.67
2019-01-18T13:48:53.199Z,1015.64
2019-01-18T13:49:53.190Z,1015.64
2019-01-18T13:50:53.179Z,1015.65
2019-01-18T13:51:53.181Z,1015.64
2019-01-18T13:52:53.152Z,1015.67
2019-01-18T13:53:53.145Z,1015.68
2019-01-18T13:54:53.134Z,1015.69
2019-01-18T13:55:53.134Z,1015.70
2019-01-18T13:56:53.145Z,1015.69
2019-01-18T13:57:53.105Z,1015.69
2019-01-18T13:58:53.094Z,1015.67
2019-01-18T13:59:53.080Z,1015.67
2019-01-18T14:00:53.134Z,1015.66
2019-01-18T14:01:53.076Z,1015.67
2019-01-18T14:02:53.049Z,1015.66
2019-01-18T14:03:53.220Z,1015.64
2019-01-18T14:04:53.027Z,1015.67
2019-01-18T14:05:53.017Z,1015.70
2019-01-18T14:06:53.031Z,1015.69
2019-01-18T14:07:53.502Z,1015.67
2019-01-18T14:08:52.984Z,1015.72
2019-01-18T14:09:52.975Z,1015.71
2019-01-18T14:10:52.962Z,1015.71
2019-01-18T14:11:55.845Z,1015.71
2019-01-18T14:12:52.970Z,1015.73
2019-01-18T14:13:52.931Z,1015.74
2019-01-18T14:14:52.965Z,1015.71
2019-01-18T14:15:52.910Z,1015.70
2019-01-18T14:16:52.989Z,1015.74
2019-01-18T14:17:52.891Z,1015.68
2019-01-18T14:18:52.879Z,1015.73
2019-01-18T14:19:52.867Z,1015.71
2019-01-18T14:20:52.859Z,1015.66
2019-01-18T14:21:52.862Z,1015.68
2019-01-18T14:22:52.840Z,1015.68
2019-01-18T14:23:53.725Z,1015.66
2019-01-18T14:24:52.980Z,1015.68
2019-01-18T14:25:52.816Z,1015.66
2019-01-18T14:26:52.827Z,1015.63
2019-01-18T14:27:52.784Z,1015.62
2019-01-18T14:28:52.771Z,1015.63
2019-01-18T14:29:52.768Z,1015.60
2019-01-18T14:30:52.758Z,1015.59
2019-01-18T14:31:52.834Z,1015.55
2019-01-18T14:32:55.669Z,1015.56
2019-01-18T14:33:52.723Z,1015.56
2019-01-18T14:34:52.722Z,1015.60
2019-01-18T14:35:52.699Z,1015.56
2019-01-18T14:36:52.994Z,1015.59
2019-01-18T14:37:52.692Z,1015.55
2019-01-18T14:38:52.694Z,1015.59
2019-01-18T14:39:52.671Z,1015.59
2019-01-18T14:40:52.645Z,1015.54
2019-01-18T14:41:52.647Z,1015.60
2019-01-18T14:42:52.642Z,1015.63
2019-01-18T14:43:52.627Z,1015.57
2019-01-18T14:44:52.632Z,1015.61
2019-01-18T14:45:52.605Z,1015.62
2019-01-18T14:46:52.724Z,1015.66
2019-01-18T14:47:52.605Z,1015.60
2019-01-18T14:48:53.305Z,1015.57
2019-01-18T14:49:52.551Z,1015.64
2019-01-18T14:50:52.556Z,1015.61
2019-01-18T14:51:52.546Z,1015.64
2019-01-18T14:52:52.537Z,1015.60
2019-01-18T14:53:52.509Z,1015.62
2019-01-18T14:54:52.511Z,1015.60
2019-01-18T14:55:52.505Z,1015.60
2019-01-18T14:56:52.491Z,1015.63
2019-01-18T14:57:52.484Z,1015.62
2019-01-18T14:58:52.460Z,1015.66
2019-01-18T14:59:52.452Z,1015.62
2019-01-18T15:00:52.441Z,1015.62
2019-01-18T15:01:52.445Z,1015.59
2019-01-18T15:02:52.440Z,1015.63
2019-01-18T15:03:54.163Z,1015.62
2019-01-18T15:04:52.427Z,1015.66
2019-01-18T15:05:52.385Z,1015.64
2019-01-18T15:06:52.390Z,1015.60
2019-01-18T15:07:52.399Z,1015.55
2019-01-18T15:08:52.368Z,1015.61
2019-01-18T15:09:52.341Z,1015.61
2019-01-18T15:10:52.333Z,1015.63
2019-01-18T15:11:52.331Z,1015.61
2019-01-18T15:12:52.334Z,1015.65
2019-01-18T15:13:52.307Z,1015.65
2019-01-18T15:14:52.301Z,1015.63
2019-01-18T15:15:52.283Z,1015.65
2019-01-18T15:16:52.268Z,1015.66
2019-01-18T15:17:52.291Z,1015.59
2019-01-18T15:18:52.251Z,1015.61
2019-01-18T15:19:52.258Z,1015.62
2019-01-18T15:20:52.236Z,1015.62
2019-01-18T15:21:52.216Z,1015.60
2019-01-18T15:22:52.232Z,1015.63
2019-01-18T15:23:52.208Z,1015.64
2019-01-18T15:24:52.186Z,1015.65
2019-01-18T15:25:52.187Z,1015.62
2019-01-18T15:26:52.173Z,1015.65
2019-01-18T15:27:52.173Z,1015.65
2019-01-18T15:28:52.142Z,1015.62
2019-01-18T15:29:52.129Z,1015.63
2019-01-18T15:30:52.123Z,1015.61
2019-01-18T15:31:52.121Z,1015.62
2019-01-18T15:32:52.146Z,1015.61
2019-01-18T15:33:52.087Z,1015.64
2019-01-18T15:34:52.094Z,1015.62
2019-01-18T15:35:52.097Z,1015.63
2019-01-18T15:36:52.059Z,1015.61
2019-01-18T15:37:52.050Z,1015.59
2019-01-18T15:38:52.078Z,1015.60
2019-01-18T15:39:52.026Z,1015.62
2019-01-18T15:40:52.016Z,1015.61
2019-01-18T15:41:52.006Z,1015.61
2019-01-18T15:42:51.995Z,1015.62
2019-01-18T15:43:52.001Z,1015.63
2019-01-18T15:44:51.985Z,1015.55
2019-01-18T15:45:51.962Z,1015.59
2019-01-18T15:46:51.951Z,1015.61
2019-01-18T15:47:51.939Z,1015.56
2019-01-18T15:48:51.944Z,1015.62
2019-01-18T15:49:51.935Z,1015.59
2019-01-18T15:50:51.914Z,1015.60
2019-01-18T15:51:51.916Z,1015.63
2019-01-18T15:52:51.887Z,1015.65
2019-01-18T15:53:51.899Z,1015.65
2019-01-18T15:54:51.900Z,1015.63
2019-01-18T15:55:51.902Z,1015.63
2019-01-18T15:56:51.845Z,1015.60
2019-01-18T15:57:51.837Z,1015.65
2019-01-18T15:58:51.856Z,1015.65
2019-01-18T15:59:51.816Z,1015.64
2019-01-18T16:00:51.804Z,1015.57
2019-01-18T16:01:51.820Z,1015.57
2019-01-18T16:02:51.782Z,1015.58
2019-01-18T16:03:51.811Z,1015.62
2019-01-18T16:04:51.765Z,1015.59
2019-01-18T16:05:51.770Z,1015.61
2019-01-18T16:06:51.741Z,1015.57
2019-01-18T16:07:51.732Z,1015.57
2019-01-18T16:08:51.740Z,1015.55
2019-01-18T16:09:51.709Z,1015.54
2019-01-18T16:10:51.701Z,1015.55
2019-01-18T16:11:51.687Z,1015.59
2019-01-18T16:12:51.693Z,1015.55
2019-01-18T16:13:51.689Z,1015.56
2019-01-18T16:14:51.654Z,1015.54
2019-01-18T16:15:51.647Z,1015.57
2019-01-18T16:16:51.645Z,1015.59
2019-01-18T16:17:51.625Z,1015.60
2019-01-18T16:18:51.643Z,1015.62
2019-01-18T16:19:51.605Z,1015.59
2019-01-18T16:20:51.593Z,1015.63
2019-01-18T16:21:51.597Z,1015.61
2019-01-18T16:22:51.570Z,1015.57
2019-01-18T16:23:51.583Z,1015.57
2019-01-18T16:24:51.550Z,1015.60
2019-01-18T16:25:51.541Z,1015.56
2019-01-18T16:26:51.535Z,1015.57
2019-01-18T16:27:51.516Z,1015.58
2019-01-18T16:28:51.524Z,1015.60
2019-01-18T16:29:51.497Z,1015.59
2019-01-18T16:30:51.489Z,1015.58
2019-01-18T16:31:51.527Z,1015.56
2019-01-18T16:32:51.476Z,1015.56
2019-01-18T16:33:51.476Z,1015.53
2019-01-18T16:34:51.446Z,1015.60
2019-01-18T16:35:51.431Z,1015.61
2019-01-18T16:36:51.424Z,1015.59
2019-01-18T16:37:51.457Z,1015.63
2019-01-18T16:38:51.407Z,1015.65
2019-01-18T16:39:51.473Z,1015.61
2019-01-18T16:40:51.378Z,1015.63
2019-01-18T16:41:51.368Z,1015.64
2019-01-18T16:42:51.359Z,1015.63
2019-01-18T16:43:51.354Z,1015.68
2019-01-18T16:44:51.366Z,1015.66
2019-01-18T16:45:51.338Z,1015.68
2019-01-18T16:46:51.324Z,1015.68
2019-01-18T16:47:51.318Z,1015.67
2019-01-18T16:48:51.300Z,1015.69
2019-01-18T16:49:51.336Z,1015.68
2019-01-18T16:50:51.276Z,1015.65
2019-01-18T16:51:51.260Z,1015.65
2019-01-18T16:52:51.252Z,1015.65
2019-01-18T16:53:51.244Z,1015.71
2019-01-18T16:54:51.246Z,1015.70
2019-01-18T16:55:51.217Z,1015.68
2019-01-18T16:56:51.210Z,1015.65
2019-01-18T16:57:51.205Z,1015.65
2019-01-18T16:58:51.190Z,1015.63
2019-01-18T16:59:51.190Z,1015.68
2019-01-18T17:00:51.168Z,1015.66
2019-01-18T17:01:51.170Z,1015.70
2019-01-18T17:02:51.159Z,1015.69
2019-01-18T17:03:51.214Z,1015.68
2019-01-18T17:04:51.140Z,1015.71
2019-01-18T17:05:51.110Z,1015.74
2019-01-18T17:06:51.100Z,1015.69
2019-01-18T17:07:51.094Z,1015.65
2019-01-18T17:08:51.081Z,1015.67
2019-01-18T17:09:51.091Z,1015.67
2019-01-18T17:10:51.058Z,1015.65
2019-01-18T17:11:51.179Z,1015.67
2019-01-18T17:12:51.078Z,1015.62
2019-01-18T17:13:51.026Z,1015.64
2019-01-18T17:14:51.245Z,1015.63
2019-01-18T17:15:51.003Z,1015.64
2019-01-18T17:16:50.993Z,1015.62
2019-01-18T17:17:50.988Z,1015.62
2019-01-18T17:18:51.017Z,1015.62
2019-01-18T17:19:50.987Z,1015.65
2019-01-18T17:20:50.954Z,1015.63
2019-01-18T17:21:50.955Z,1015.66
2019-01-18T17:22:50.938Z,1015.66
2019-01-18T17:23:50.920Z,1015.62
2019-01-18T17:24:51.036Z,1015.63
2019-01-18T17:25:50.898Z,1015.64
2019-01-18T17:26:50.894Z,1015.66
2019-01-18T17:27:50.959Z,1015.61